Time;durP1;ratioP1;P1;durP2;ratioP2;P2;SDS_P1;SDS_P2;PMS_P1;PMS_P2;Temp;Humidity;BMP_temperature;BMP_pressure;BME280_temperature;BME280_humidity;BME280_pressure;Samples;Min_cycle;Max_cycle;Signal;HPM_P1;HPM_P2
2021/11/17 02:26:07;;;;;;;;;;;22.50;40.60;;;;;;5008682;28;20088;-64
2021/11/17 02:28:40;;;;;;;120.22;17.88;;;22.40;40.50;;;;;;5040390;28;20070;-62
2021/11/17 02:31:34;;;;;;;98.22;15.77;;;22.40;40.40;;;;;;5091297;28;20093;-62
2021/11/17 02:34:42;;;;;;;107.30;17.52;;;22.40;40.00;;;;;;5056813;28;20072;-64
2021/11/17 02:37:32;;;;;;;;;;;22.30;40.20;;;;;;5076842;28;20096;-64
2021/11/17 02:40:17;;;;;;;109.03;15.93;;;22.20;40.40;;;;;;5052870;28;20378;-65
2021/11/17 02:43:06;;;;;;;87.35;15.63;;;22.20;46.10;;;;;;5048898;28;20182;-63
2021/11/17 02:46:00;;;;;;;100.65;15.27;;;22.00;58.40;;;;;;5043920;28;20047;-61
2021/11/17 02:48:46;;;;;;;79.55;13.45;;;22.00;49.90;;;;;;5046428;28;20075;-61
2021/11/17 02:51:21;;;;;;;94.97;15.63;;;22.00;50.30;;;;;;5064316;28;20036;-59
2021/11/17 02:54:15;;;;;;;113.18;16.00;;;21.90;49.40;;;;;;5081383;28;20028;-61
2021/11/17 02:57:00;;;;;;;92.15;15.27;;;21.80;50.80;;;;;;5066402;28;20088;-63
2021/11/17 02:59:26;;;;;;;97.18;15.50;;;;;;;;;;5060762;28;20035;-61
2021/11/17 03:01:53;;;;;;;125.63;17.83;;;;;;;;;;5077386;28;20506;-64
2021/11/17 03:04:40;;;;;;;114.75;16.45;;;21.70;50.20;;;;;;5083488;28;20135;-64
2021/11/17 03:07:28;;;;;;;96.13;14.93;;;21.70;50.80;;;;;;5080971;28;20032;-62
2021/11/17 03:10:24;;;;;;;108.97;16.00;;;21.60;51.80;;;;;;5058706;28;20106;-64
2021/11/17 03:13:30;;;;;;;101.60;15.43;;;21.70;51.10;;;;;;5062228;28;20073;-63
2021/11/17 03:16:23;;;;;;;102.63;15.93;;;21.40;52.90;;;;;;5058572;28;20067;-63
2021/11/17 03:19:14;;;;;;;124.75;16.25;;;21.40;52.40;;;;;;5057393;28;20035;-61
2021/11/17 03:22:00;;;;;;;111.15;16.13;;;21.40;51.80;;;;;;5079864;28;20032;-60
2021/11/17 03:24:54;;;;;;;96.03;15.25;;;21.40;56.00;;;;;;5059939;28;20032;-64
2021/11/17 03:27:23;;;;;;;91.97;15.50;;;21.40;44.20;;;;;;5048874;28;20073;-65
2021/11/17 03:29:59;;;;;;;79.35;16.45;;;21.30;44.20;;;;;;5057858;28;20077;-63
2021/11/17 03:32:31;;;;;;;99.35;16.70;;;21.30;43.90;;;;;;5081723;28;20141;-63
2021/11/17 03:35:32;;;;;;;90.05;16.38;;;21.20;43.40;;;;;;5075923;28;20156;-62
2021/11/17 03:38:06;;;;;;;83.53;17.85;;;21.20;44.50;;;;;;5047991;28;20076;-62
2021/11/17 03:40:51;;;;;;;81.25;15.98;;;21.20;43.90;;;;;;5060700;28;20612;-66
2021/11/17 03:43:42;;;;;;;80.32;16.73;;;21.10;43.60;;;;;;5051927;28;20072;-64
2021/11/17 03:46:27;;;;;;;86.28;16.92;;;21.20;43.70;;;;;;5071839;28;20077;-68
2021/11/17 03:49:02;;;;;;;84.72;16.33;;;21.10;43.10;;;;;;5070112;28;20214;-65
2021/11/17 03:51:44;;;;;;;91.72;16.38;;;21.10;42.60;;;;;;5061705;28;20126;-64
2021/11/17 03:54:53;;;;;;;72.95;14.50;;;21.10;42.70;;;;;;5055973;28;20080;-66
2021/11/17 03:57:41;;;;;;;67.35;13.43;;;21.10;42.30;;;;;;5028127;28;20082;-65
2021/11/17 04:00:14;;;;;;;51.50;13.63;;;21.00;42.30;;;;;;4999224;28;20132;-65
2021/11/17 04:03:10;;;;;;;57.33;13.35;;;21.00;41.60;;;;;;5027813;28;20132;-64
2021/11/17 04:05:52;;;;;;;75.93;12.57;;;21.00;42.00;;;;;;5028296;28;20074;-65
2021/11/17 04:08:27;;;;;;;70.45;14.45;;;20.90;42.10;;;;;;5047380;28;20074;-65
2021/11/17 04:11:09;;;;;;;57.15;13.13;;;20.90;42.50;;;;;;5027565;28;20187;-64
2021/11/17 04:14:02;;;;;;;45.20;11.30;;;20.90;43.10;;;;;;5025347;28;20100;-64
2021/11/17 04:16:37;;;;;;;50.72;12.50;;;20.80;43.10;;;;;;5030522;28;20685;-65
2021/11/17 04:19:28;;;;;;;65.80;12.32;;;20.80;42.70;;;;;;5030468;28;20172;-62
2021/11/17 04:22:08;;;;;;;50.53;12.57;;;20.70;42.10;;;;;;5027623;28;20086;-65
2021/11/17 04:25:08;;;;;;;53.97;10.57;;;20.60;42.10;;;;;;5012099;28;20085;-65
2021/11/17 04:27:50;;;;;;;60.78;11.25;;;20.60;41.90;;;;;;4987566;28;20197;-63
2021/11/17 04:30:19;;;;;;;43.80;10.32;;;20.60;41.90;;;;;;4988243;28;20577;-63
2021/11/17 04:33:07;;;;;;;44.95;9.32;;;20.60;41.80;;;;;;4999492;28;20545;-61
2021/11/17 04:35:52;;;;;;;37.10;9.45;;;20.60;40.90;;;;;;5027801;28;20548;-63
2021/11/17 04:38:27;;;;;;;48.83;9.75;;;20.50;42.20;;;;;;5011161;28;20133;-64
2021/11/17 04:41:02;;;;;;;60.90;10.85;;;20.50;41.20;;;;;;5027256;28;20074;-65
2021/11/17 04:43:49;;;;;;;47.83;9.57;;;20.50;40.70;;;;;;5029776;28;20093;-65
2021/11/17 04:46:18;;;;;;;58.87;8.87;;;20.50;40.80;;;;;;5030345;28;20086;-65
2021/11/17 04:48:57;;;;;;;31.20;7.82;;;20.50;40.10;;;;;;5030445;28;20117;-64
2021/11/17 04:51:38;;;;;;;38.83;8.23;;;20.50;39.90;;;;;;5030377;28;20105;-65
2021/11/17 04:54:32;;;;;;;47.00;8.77;;;20.40;39.90;;;;;;5030743;28;20082;-65
2021/11/17 04:57:20;;;;;;;39.80;7.82;;;20.40;40.00;;;;;;5080554;22;20653;-63
2021/11/17 05:00:20;;;;;;;46.78;8.75;;;20.30;40.50;;;;;;5095018;28;20076;-64
2021/11/17 05:03:17;;;;;;;42.05;8.65;;;20.30;40.80;;;;;;5095253;28;20069;-63
2021/11/17 05:05:58;;;;;;;48.87;8.73;;;20.20;40.60;;;;;;5063393;28;20068;-65
2021/11/17 05:08:54;;;;;;;36.80;7.65;;;20.20;40.60;;;;;;5078004;28;20141;-63
2021/11/17 05:11:32;;;;;;;42.85;9.15;;;20.10;40.50;;;;;;5094879;27;20092;-63
2021/11/17 05:14:08;;;;;;;41.83;8.65;;;20.10;40.90;;;;;;5078781;28;20071;-64
2021/11/17 05:16:41;;;;;;;49.42;9.68;;;20.00;40.30;;;;;;5077700;27;20421;-61
2021/11/17 05:19:16;;;;;;;44.33;8.40;;;19.90;40.40;;;;;;5112843;28;20092;-63
2021/11/17 05:22:07;;;;;;;39.88;7.90;;;19.80;41.00;;;;;;5094821;28;20072;-63
2021/11/17 05:24:46;;;;;;;34.60;8.15;;;19.80;41.60;;;;;;5089467;28;20172;-65
2021/11/17 05:27:19;;;;;;;38.05;8.98;;;19.70;41.70;;;;;;5077645;28;20557;-65
2021/11/17 05:30:22;;;;;;;38.25;10.80;;;19.80;42.00;;;;;;5094487;27;20437;-65
2021/11/17 05:33:11;;;;;;;43.58;11.65;;;19.80;41.10;;;;;;5095253;28;20088;-62
2021/11/17 05:35:56;;;;;;;39.80;11.98;;;19.70;40.60;;;;;;5094278;28;20068;-62
2021/11/17 05:39:07;;;;;;;54.45;12.55;;;19.70;40.50;;;;;;5077698;28;20125;-61
2021/11/17 05:41:46;;;;;;;53.35;11.80;;;19.70;41.00;;;;;;5063199;28;20526;-63
2021/11/17 05:44:29;;;;;;;38.75;10.00;;;19.60;41.20;;;;;;5077060;28;20083;-62
2021/11/17 05:47:23;;;;;;;37.65;7.68;;;19.50;42.10;;;;;;5061478;28;20112;-60
2021/11/17 05:50:08;;;;;;;39.45;8.30;;;19.40;42.90;;;;;;5079225;28;20100;-61
2021/11/17 05:52:40;;;;;;;42.78;8.65;;;19.30;43.50;;;;;;5074805;28;20384;-65
2021/11/17 05:55:12;;;;;;;43.15;8.27;;;19.10;44.40;;;;;;5092671;28;20079;-62
2021/11/17 05:58:14;;;;;;;42.08;7.82;;;19.20;44.70;;;;;;5112072;28;20419;-63
2021/11/17 06:00:58;;;;;;;36.15;7.47;;;19.10;44.40;;;;;;5056941;28;20068;-62
2021/11/17 06:03:55;;;;;;;60.65;8.27;;;19.10;44.70;;;;;;5086143;28;20529;-63
2021/11/17 06:06:22;;;;;;;50.03;9.73;;;19.10;44.60;;;;;;5087012;28;20080;-63
2021/11/17 06:08:49;;;;;;;57.83;10.82;;;19.00;44.30;;;;;;5087488;28;20463;-61
2021/11/17 06:11:19;;;;;;;39.75;9.75;;;18.90;43.50;;;;;;5086551;28;20553;-63
2021/11/17 06:13:46;;;;;;;81.22;14.07;;;18.90;44.60;;;;;;5085394;28;20553;-63
2021/11/17 06:16:13;;;;;;;89.95;15.30;;;18.90;44.10;;;;;;5071199;28;20518;-62
2021/11/17 06:18:43;;;;;;;94.15;16.13;;;18.90;43.80;;;;;;5086190;28;20093;-64
2021/11/17 06:21:13;;;;;;;100.68;18.70;;;18.80;43.70;;;;;;5084203;28;20092;-62
2021/11/17 06:23:48;;;;;;;120.00;20.05;;;18.80;44.10;;;;;;5086244;28;20462;-64
2021/11/17 06:26:20;;;;;;;105.47;18.50;;;18.90;44.30;;;;;;5085588;28;20086;-65
2021/11/17 06:29:00;;;;;;;109.88;18.95;;;18.90;44.40;;;;;;5101702;28;20088;-64
2021/11/17 06:31:28;;;;;;;90.20;16.52;;;18.80;44.80;;;;;;5084659;28;20148;-63
2021/11/17 06:33:55;;;;;;;99.13;17.20;;;18.70;44.90;;;;;;5087200;28;20075;-63
2021/11/17 06:36:21;;;;;;;100.63;18.10;;;18.60;45.10;;;;;;5088009;28;20233;-63
2021/11/17 06:38:47;;;;;;;;;;;18.50;46.10;;;;;;5085153;28;20091;-62
2021/11/17 06:41:15;;;;;;;97.97;19.67;;;18.50;46.60;;;;;;5104895;28;20424;-62
2021/11/17 06:43:42;;;;;;;116.85;20.42;;;18.50;47.10;;;;;;5086182;28;20179;-64
2021/11/17 06:46:09;;;;;;;124.38;24.10;;;18.50;47.10;;;;;;5084755;28;20107;-64
2021/11/17 06:48:36;;;;;;;146.77;27.65;;;18.50;46.60;;;;;;5098988;28;20111;-61
2021/11/17 06:51:03;;;;;;;155.00;30.35;;;18.50;46.90;;;;;;5085635;28;20123;-61
2021/11/17 06:53:30;;;;;;;171.77;32.65;;;18.40;46.60;;;;;;5104906;28;20072;-62
2021/11/17 06:55:58;;;;;;;158.50;30.60;;;18.40;47.20;;;;;;5086668;28;20118;-62
2021/11/17 06:58:24;;;;;;;166.82;35.40;;;18.40;47.20;;;;;;5083852;28;21038;-62
2021/11/17 07:00:53;;;;;;;163.85;38.17;;;18.40;47.00;;;;;;5053711;28;20518;-62
2021/11/17 07:03:20;;;;;;;153.38;37.92;;;18.50;47.30;;;;;;5085178;28;20092;-61
2021/11/17 07:05:46;;;;;;;197.15;40.00;;;18.40;47.20;;;;;;5067143;28;20072;-62
2021/11/17 07:08:13;;;;;;;179.88;39.45;;;18.40;48.00;;;;;;5087679;28;20713;-62
2021/11/17 07:10:40;;;;;;;151.93;36.65;;;18.30;48.20;;;;;;5083662;28;20090;-64
2021/11/17 07:13:07;;;;;;;185.23;38.15;;;18.30;48.50;;;;;;5069962;28;20072;-62
2021/11/17 07:15:35;;;;;;;189.75;39.22;;;18.30;49.00;;;;;;5085849;28;20083;-64
2021/11/17 07:18:02;;;;;;;183.73;37.30;;;18.30;48.80;;;;;;5069612;28;20081;-64
2021/11/17 07:20:29;;;;;;;146.07;35.25;;;18.20;49.00;;;;;;5085802;28;20075;-64
2021/11/17 07:22:55;;;;;;;187.07;34.97;;;18.20;49.40;;;;;;5085222;28;20091;-62
2021/11/17 07:25:22;;;;;;;;;;;18.20;49.60;;;;;;5087207;28;20121;-62
2021/11/17 07:27:49;;;;;;;184.25;37.92;;;18.20;49.90;;;;;;5085468;28;19956;-65
2021/11/17 07:30:21;;;;;;;158.32;38.50;;;18.20;50.10;;;;;;5083511;28;20077;-62
2021/11/17 07:32:49;;;;;;;170.10;39.17;;;18.10;50.60;;;;;;5067472;28;20106;-63
2021/11/17 07:35:17;;;;;;;148.73;35.97;;;18.10;50.60;;;;;;5083733;28;20076;-63
2021/11/17 07:37:43;;;;;;;159.75;37.72;;;18.10;51.20;;;;;;5104017;28;20080;-63
2021/11/17 07:40:11;;;;;;;177.32;38.25;;;18.10;51.00;;;;;;5081429;28;20223;-63
2021/11/17 07:42:37;;;;;;;163.02;38.38;;;18.00;51.30;;;;;;5084358;28;20205;-61
2021/11/17 07:45:06;;;;;;;168.02;38.78;;;18.00;51.20;;;;;;5103207;28;20102;-62
2021/11/17 07:47:32;;;;;;;182.05;39.85;;;17.90;51.30;;;;;;5084238;28;20076;-63
2021/11/17 07:50:01;;;;;;;;;;;17.80;51.80;;;;;;5081237;28;20435;-64
2021/11/17 07:52:28;;;;;;;157.85;36.22;;;17.80;52.00;;;;;;5085396;28;20019;-63
2021/11/17 07:54:54;;;;;;;157.15;35.88;;;17.80;52.60;;;;;;5068903;28;20068;-63
2021/11/17 07:57:20;;;;;;;;;;;17.80;52.90;;;;;;5085234;28;20635;-65
2021/11/17 07:59:47;;;;;;;142.38;34.20;;;17.70;52.90;;;;;;5064539;28;19957;-65
2021/11/17 08:02:14;;;;;;;124.78;31.55;;;17.80;53.20;;;;;;5068537;28;20091;-64
2021/11/17 08:04:42;;;;;;;135.95;29.55;;;17.70;53.30;;;;;;5086183;28;20079;-63
2021/11/17 08:07:19;;;;;;;124.70;28.95;;;17.70;53.30;;;;;;5065252;28;20146;-62
2021/11/17 08:09:47;;;;;;;98.65;26.33;;;17.80;53.60;;;;;;5069406;28;20080;-64
2021/11/17 08:12:13;;;;;;;96.68;26.88;;;17.80;53.60;;;;;;5085785;28;20096;-63
2021/11/17 08:14:40;;;;;;;86.53;25.55;;;17.80;54.00;;;;;;5086997;28;20068;-63
2021/11/17 08:17:07;;;;;;;90.93;23.67;;;17.80;53.90;;;;;;5103225;28;20475;-63
2021/11/17 08:19:33;;;;;;;103.35;25.15;;;17.80;54.00;;;;;;5056857;28;20080;-63
2021/11/17 08:22:06;;;;;;;93.82;23.42;;;17.80;54.20;;;;;;5088873;28;20080;-63
2021/11/17 08:24:34;;;;;;;108.05;26.58;;;17.90;54.60;;;;;;5085738;28;20076;-63
2021/11/17 08:27:00;;;;;;;88.68;27.65;;;17.90;53.80;;;;;;5108117;28;20158;-63
2021/11/17 08:29:27;;;;;;;;;;;17.80;54.00;;;;;;5071130;28;20125;-64
2021/11/17 08:31:53;;;;;;;86.32;26.00;;;17.70;54.20;;;;;;5090185;28;19978;-66
2021/11/17 08:34:20;;;;;;;82.13;24.90;;;17.80;54.80;;;;;;5090622;28;20444;-65
2021/11/17 08:36:46;;;;;;;91.32;25.75;;;17.90;54.70;;;;;;5106876;28;20597;-65
2021/11/17 08:39:16;;;;;;;92.28;24.42;;;18.00;54.60;;;;;;5087192;28;20533;-63
2021/11/17 08:41:44;;;;;;;83.03;24.58;;;18.00;54.60;;;;;;5088647;28;20122;-64
2021/11/17 08:44:12;;;;;;;84.25;23.83;;;18.00;54.60;;;;;;5087697;28;20467;-65
2021/11/17 08:46:38;;;;;;;71.30;21.70;;;17.90;54.50;;;;;;5107417;28;20524;-65
2021/11/17 08:49:05;;;;;;;91.15;22.63;;;17.90;54.70;;;;;;5088961;28;20175;-63
2021/11/17 08:51:32;;;;;;;72.25;19.77;;;17.90;54.40;;;;;;5054389;28;20092;-65
2021/11/17 08:54:03;;;;;;;64.25;18.25;;;17.80;54.80;;;;;;5089159;28;20111;-64
2021/11/17 08:56:32;;;;;;;71.25;17.83;;;17.80;55.10;;;;;;5106890;28;20100;-66
2021/11/17 08:58:58;;;;;;;73.78;18.50;;;17.80;54.80;;;;;;5088078;28;20091;-65
2021/11/17 09:01:24;;;;;;;;;;;17.80;55.40;;;;;;5056060;28;20074;-66
2021/11/17 09:03:51;;;;;;;77.60;24.15;;;17.80;55.70;;;;;;5087287;28;19964;-65
2021/11/17 09:06:16;;;;;;;;;;;17.60;55.70;;;;;;5088768;28;20171;-62
2021/11/17 09:08:43;;;;;;;73.13;23.58;;;17.60;56.40;;;;;;5070933;28;20051;-63
2021/11/17 09:11:16;;;;;;;71.10;22.73;;;17.50;56.50;;;;;;5070009;28;20560;-65
2021/11/17 09:13:43;;;;;;;73.18;23.70;;;17.50;57.10;;;;;;5090191;28;20111;-64
2021/11/17 09:16:10;;;;;;;69.38;21.75;;;17.50;58.00;;;;;;5088748;28;20068;-65
2021/11/17 09:18:39;;;;;;;79.00;22.75;;;17.60;58.10;;;;;;5106421;28;20554;-65
2021/11/17 09:21:10;;;;;;;78.82;22.60;;;17.50;57.70;;;;;;5086913;28;20329;-64
2021/11/17 09:23:36;;;;;;;79.63;25.25;;;17.50;58.10;;;;;;5104282;28;20099;-64
2021/11/17 09:26:03;;;;;;;;;;;17.60;58.40;;;;;;5087327;28;20084;-66
2021/11/17 09:28:32;;;;;;;79.15;23.58;;;17.60;58.80;;;;;;5085962;28;20022;-65
2021/11/17 09:30:58;;;;;;;75.75;21.67;;;17.50;59.20;;;;;;5087953;28;20084;-65
2021/11/17 09:33:26;;;;;;;88.75;23.30;;;17.60;59.10;;;;;;5069051;28;20064;-62
2021/11/17 09:35:53;;;;;;;92.22;22.70;;;17.50;58.90;;;;;;5089299;28;20132;-65
2021/11/17 09:38:21;;;;;;;75.05;23.20;;;17.50;59.40;;;;;;5087704;28;20068;-66
2021/11/17 09:40:54;;;;;;;79.07;22.38;;;17.40;59.90;;;;;;5087921;28;20087;-65
2021/11/17 09:43:28;;;;;;;85.78;22.95;;;17.50;60.00;;;;;;5088291;28;20092;-65
2021/11/17 09:45:56;;;;;;;84.90;23.55;;;17.40;60.00;;;;;;5084881;28;20133;-66
2021/11/17 09:48:38;;;;;;;85.25;23.10;;;17.40;60.70;;;;;;5104971;28;20138;-65
2021/11/17 09:51:10;;;;;;;78.78;23.33;;;17.50;60.70;;;;;;5086346;28;20589;-65
2021/11/17 09:53:43;;;;;;;83.15;23.10;;;17.40;60.80;;;;;;5104291;28;20077;-66
2021/11/17 09:56:25;;;;;;;84.38;19.95;;;17.30;61.60;;;;;;5085078;28;20076;-64
2021/11/17 09:58:56;;;;;;;89.57;22.45;;;17.20;62.00;;;;;;5070247;28;20092;-64
2021/11/17 10:01:36;;;;;;;90.70;22.75;;;17.30;61.80;;;;;;5088068;28;20077;-64
2021/11/17 10:04:15;;;;;;;86.43;22.23;;;17.30;62.10;;;;;;5055634;28;20637;-63
2021/11/17 10:14:59;;;;;;;81.72;22.05;;;17.40;62.20;;;;;;5086720;28;20549;-65
2021/11/17 10:17:51;;;;;;;82.85;21.70;;;17.40;62.40;;;;;;5085820;28;20128;-65
2021/11/17 10:20:24;;;;;;;79.35;21.08;;;17.30;62.70;;;;;;5086625;28;20121;-65
2021/11/17 10:23:05;;;;;;;80.72;21.00;;;17.20;62.10;;;;;;5084165;28;20069;-66
2021/11/17 10:26:01;;;;;;;83.30;20.92;;;17.10;63.10;;;;;;5082383;28;20168;-64
2021/11/17 10:28:51;;;;;;;75.05;20.27;;;17.10;63.60;;;;;;5071549;28;20076;-66
2021/11/17 10:31:31;;;;;;;84.78;21.98;;;17.10;63.60;;;;;;5103388;28;20091;-63
2021/11/17 10:33:57;;;;;;;79.13;20.85;;;17.00;63.80;;;;;;5083501;28;20088;-65
2021/11/17 10:36:49;;;;;;;78.40;22.73;;;17.00;64.90;;;;;;5087341;28;20076;-66
2021/11/17 10:39:28;;;;;;;91.10;22.30;;;17.00;65.70;;;;;;5085507;28;20137;-65
2021/11/17 10:41:59;;;;;;;91.03;23.30;;;17.00;66.70;;;;;;5082643;28;20606;-66
2021/11/17 10:44:55;;;;;;;95.50;24.33;;;17.00;68.60;;;;;;5105011;28;20081;-65
2021/11/17 10:47:27;;;;;;;88.95;22.88;;;17.00;71.10;;;;;;5088467;28;20099;-66
2021/11/17 10:50:18;;;;;;;71.15;23.10;;;17.00;73.90;;;;;;5084886;28;20465;-67
2021/11/17 10:53:25;;;;;;;78.43;24.13;;;17.00;74.00;;;;;;5085199;28;20197;-66
2021/11/17 10:55:56;;;;;;;77.75;24.30;;;17.10;74.90;;;;;;5100155;28;20060;-65
2021/11/17 10:58:29;;;;;;;84.97;23.85;;;17.10;75.60;;;;;;5086097;28;20119;-65
2021/11/17 11:00:58;;;;;;;74.55;23.80;;;17.00;76.60;;;;;;5086064;28;20168;-61
2021/11/17 11:03:26;;;;;;;78.55;22.90;;;16.90;77.50;;;;;;5084997;28;20093;-65
2021/11/17 11:05:56;;;;;;;88.15;22.75;;;16.80;79.40;;;;;;5085827;28;20084;-66
2021/11/17 11:08:31;;;;;;;57.22;19.65;;;16.80;81.30;;;;;;5085605;28;20655;-67
2021/11/17 11:11:01;;;;;;;66.55;18.58;;;16.80;85.00;;;;;;5068378;28;20176;-65
2021/11/17 11:14:11;;;;;;;46.25;15.73;;;16.90;89.40;;;;;;5086154;28;20073;-64
2021/11/17 11:16:47;;;;;;;40.05;14.88;;;16.80;92.40;;;;;;4987444;28;20094;-65
2021/11/17 11:19:14;;;;;;;41.88;13.90;;;16.80;94.40;;;;;;4989079;28;20237;-66
2021/11/17 11:21:46;;;;;;;39.92;14.52;;;16.70;96.30;;;;;;4979212;28;20098;-65
2021/11/17 11:24:30;;;;;;;40.03;14.27;;;16.70;98.30;;;;;;4988435;28;20496;-65
2021/11/17 11:27:00;;;;;;;48.58;15.32;;;16.60;99.90;;;;;;4979186;28;20132;-64
2021/11/17 11:29:40;;;;;;;44.15;13.18;;;16.60;99.90;;;;;;4980569;28;20176;-64
2021/11/17 11:32:11;;;;;;;36.13;14.60;;;16.70;99.90;;;;;;4987553;28;20584;-65
2021/11/17 11:34:39;;;;;;;47.60;15.15;;;16.80;99.90;;;;;;4976326;28;20560;-63
2021/11/17 11:37:33;;;;;;;43.00;14.82;;;16.70;99.90;;;;;;4980776;28;20094;-64
2021/11/17 11:40:05;;;;;;;40.85;15.80;;;16.80;99.90;;;;;;4978885;28;20093;-64
2021/11/17 11:42:39;;;;;;;47.25;18.27;;;16.80;99.90;;;;;;4978584;28;20078;-64
2021/11/17 11:45:08;;;;;;;47.90;16.02;;;16.80;99.90;;;;;;4979461;28;20082;-65
2021/11/17 11:47:50;;;;;;;52.63;16.05;;;16.90;99.90;;;;;;5063938;28;20080;-65
2021/11/17 11:50:32;;;;;;;41.25;15.85;;;16.80;99.90;;;;;;5084206;28;20445;-66
2021/11/17 11:53:17;;;;;;;45.47;16.05;;;16.70;99.90;;;;;;5087162;28;20072;-65
2021/11/17 11:55:52;;;;;;;48.42;17.27;;;16.70;99.90;;;;;;5087261;28;20077;-63
2021/11/17 11:58:24;;;;;;;49.65;16.80;;;16.70;99.90;;;;;;5087680;28;20183;-65
2021/11/17 12:01:11;;;;;;;49.25;18.33;;;16.70;99.90;;;;;;5086012;28;20222;-65
2021/11/17 12:03:48;;;;;;;50.75;19.08;;;16.80;99.90;;;;;;5086904;28;20072;-66
2021/11/17 12:06:32;;;;;;;53.80;16.13;;;16.80;99.90;;;;;;5090709;28;20092;-66
2021/11/17 12:09:19;;;;;;;50.17;18.67;;;16.80;99.90;;;;;;5088578;28;20166;-66
2021/11/17 12:11:59;;;;;;;49.15;17.38;;;16.90;99.90;;;;;;5087283;28;20157;-66
2021/11/17 12:14:39;;;;;;;38.70;16.48;;;16.90;99.90;;;;;;5088517;28;20064;-66
2021/11/17 12:17:08;;;;;;;41.97;16.52;;;16.90;99.90;;;;;;5087792;28;20072;-65
2021/11/17 12:19:51;;;;;;;49.53;17.02;;;16.90;99.90;;;;;;5069106;28;20465;-66
2021/11/17 12:22:35;;;;;;;48.65;15.32;;;16.90;99.90;;;;;;5088084;28;20076;-66
2021/11/17 12:25:20;;;;;;;42.42;17.45;;;16.90;99.90;;;;;;5071280;28;20158;-64
2021/11/17 12:27:49;;;;;;;49.05;16.83;;;17.00;99.90;;;;;;5087529;28;20068;-67
2021/11/17 12:30:34;;;;;;;39.55;17.52;;;17.00;99.90;;;;;;5091056;28;20080;-66
2021/11/17 12:33:13;;;;;;;42.20;17.67;;;17.10;99.90;;;;;;5088428;28;20065;-66
2021/11/17 12:35:45;;;;;;;54.40;19.10;;;17.10;99.90;;;;;;5088671;28;20112;-64
2021/11/17 12:38:23;;;;;;;46.67;18.77;;;17.10;99.90;;;;;;5088918;28;20084;-63
2021/11/17 12:41:23;;;;;;;58.22;19.30;;;17.10;99.90;;;;;;5088900;28;20100;-66
2021/11/17 12:44:23;;;;;;;48.72;19.70;;;17.10;99.90;;;;;;5093330;28;20104;-66
2021/11/17 12:47:15;;;;;;;42.70;17.83;;;17.10;99.90;;;;;;5086841;28;20135;-64
2021/11/17 12:50:09;;;;;;;50.40;17.85;;;17.10;99.90;;;;;;5089553;28;20099;-65
2021/11/17 12:52:48;;;;;;;46.22;17.33;;;17.10;99.90;;;;;;5085412;28;20092;-66
2021/11/17 12:55:29;;;;;;;44.22;17.75;;;17.10;99.90;;;;;;5088213;28;20064;-65
2021/11/17 12:58:08;;;;;;;53.08;17.45;;;17.00;99.90;;;;;;5107011;28;20108;-65
2021/11/17 13:00:43;;;;;;;49.47;17.40;;;17.10;99.90;;;;;;5088729;28;20583;-65
2021/11/17 13:03:27;;;;;;;41.15;19.90;;;17.10;99.90;;;;;;5070372;28;20093;-64
2021/11/17 13:06:17;;;;;;;61.30;23.27;;;17.20;99.90;;;;;;5089782;28;20407;-64
2021/11/17 13:08:44;;;;;;;61.65;23.20;;;17.10;99.90;;;;;;5088057;28;20081;-60
2021/11/17 13:11:20;;;;;;;57.05;25.30;;;17.10;99.90;;;;;;5105441;28;20619;-63
2021/11/17 13:13:57;;;;;;;61.60;25.92;;;17.10;99.90;;;;;;5086529;28;20088;-64
2021/11/17 13:16:37;;;;;;;58.15;25.73;;;17.10;99.90;;;;;;5087106;28;20088;-63
2021/11/17 13:19:17;;;;;;;72.97;27.77;;;17.00;99.90;;;;;;5088148;28;20070;-66
2021/11/17 13:21:55;;;;;;;63.72;27.77;;;17.00;99.90;;;;;;5086088;28;20191;-66
2021/11/17 13:24:22;;;;;;;67.85;27.40;;;17.00;99.90;;;;;;5104112;28;20151;-64
2021/11/17 13:27:11;;;;;;;68.03;26.15;;;16.90;99.90;;;;;;5088678;28;20084;-65
2021/11/17 13:30:19;;;;;;;51.08;26.65;;;16.80;99.90;;;;;;5085126;28;20094;-65
2021/11/17 13:32:48;;;;;;;62.03;25.63;;;16.70;99.90;;;;;;5093102;28;20168;-65
2021/11/17 13:35:36;;;;;;;60.70;27.55;;;16.70;99.90;;;;;;5086865;28;20079;-66
2021/11/17 13:38:22;;;;;;;64.78;28.38;;;16.70;99.90;;;;;;5106062;28;20072;-63
2021/11/17 13:40:52;;;;;;;63.75;27.38;;;16.60;99.90;;;;;;5085300;28;20091;-66
2021/11/17 13:43:21;;;;;;;58.88;26.27;;;16.60;99.90;;;;;;5084620;28;20586;-66
2021/11/17 13:45:51;;;;;;;54.17;27.67;;;16.60;99.90;;;;;;5105534;28;20100;-65
2021/11/17 13:48:22;;;;;;;60.08;28.23;;;16.70;99.90;;;;;;5087578;28;20079;-66
2021/11/17 13:50:50;;;;;;;66.55;30.15;;;16.60;99.90;;;;;;5088136;28;20137;-65
2021/11/17 13:53:18;;;;;;;55.90;26.85;;;16.60;99.90;;;;;;5086468;28;20079;-65
2021/11/17 13:55:56;;;;;;;56.17;30.98;;;16.70;99.90;;;;;;5087786;28;20164;-61
2021/11/17 13:58:23;;;;;;;57.72;27.80;;;16.60;99.90;;;;;;5103281;28;20235;-65
2021/11/17 14:00:49;;;;;;;;;;;16.70;99.90;;;;;;5071931;28;20107;-65
2021/11/17 14:03:15;;;;;;;62.28;32.60;;;16.70;99.90;;;;;;5086940;28;19972;-66
2021/11/17 14:05:42;;;;;;;;;;;16.70;99.90;;;;;;5090338;28;20449;-65
2021/11/17 14:08:11;;;;;;;61.42;29.73;;;16.70;99.90;;;;;;5091107;28;19960;-69
2021/11/17 14:10:38;;;;;;;71.80;35.10;;;16.70;99.90;;;;;;5093466;28;20095;-64
2021/11/17 14:13:06;;;;;;;66.35;34.03;;;16.60;99.90;;;;;;5093077;28;20064;-64
2021/11/17 14:15:34;;;;;;;69.35;33.90;;;16.70;99.90;;;;;;5091397;28;20072;-66
2021/11/17 14:18:00;;;;;;;55.28;30.95;;;16.70;99.90;;;;;;5093810;28;20164;-65
2021/11/17 14:20:27;;;;;;;56.15;29.98;;;16.70;99.90;;;;;;5110985;28;20076;-67
2021/11/17 14:22:54;;;;;;;53.78;29.48;;;16.70;99.90;;;;;;5109018;28;20162;-62
2021/11/17 14:25:23;;;;;;;65.53;30.17;;;16.60;99.90;;;;;;5090550;28;20095;-65
2021/11/17 14:28:02;;;;;;;54.53;28.52;;;16.60;99.90;;;;;;5076332;28;20208;-62
2021/11/17 14:30:43;;;;;;;53.80;28.60;;;16.70;99.90;;;;;;5089433;28;20103;-65
2021/11/17 14:33:14;;;;;;;59.65;28.75;;;16.70;99.90;;;;;;5110352;28;20072;-66
2021/11/17 14:35:40;;;;;;;58.80;25.85;;;16.80;99.90;;;;;;5109500;28;20629;-64
2021/11/17 14:38:07;;;;;;;;;;;16.90;99.90;;;;;;5093433;28;20080;-67
2021/11/17 14:40:34;;;;;;;58.03;25.10;;;16.90;99.90;;;;;;5091949;28;19956;-65
2021/11/17 14:43:01;;;;;;;60.38;27.13;;;16.90;99.90;;;;;;5075277;28;20349;-66
2021/11/17 14:45:30;;;;;;;63.00;27.25;;;16.90;99.90;;;;;;5076094;28;20072;-65
2021/11/17 14:47:57;;;;;;;59.30;27.38;;;17.00;99.90;;;;;;5091916;28;20079;-65
2021/11/17 14:50:24;;;;;;;67.25;26.83;;;16.90;99.90;;;;;;5090318;28;20173;-64
2021/11/17 14:52:50;;;;;;;57.10;25.38;;;16.90;99.90;;;;;;5092846;28;20068;-67
2021/11/17 14:55:21;;;;;;;59.13;24.95;;;16.90;99.90;;;;;;5092479;28;20162;-67
2021/11/17 14:57:48;;;;;;;60.22;25.63;;;17.00;99.90;;;;;;5108100;28;20104;-66
2021/11/17 15:00:22;;;;;;;59.28;25.45;;;17.00;99.90;;;;;;5090296;28;20068;-65
2021/11/17 15:02:49;;;;;;;54.00;23.45;;;17.00;99.90;;;;;;5092375;28;20087;-68
2021/11/17 15:05:15;;;;;;;64.38;24.85;;;16.90;99.90;;;;;;5092867;28;20158;-65
2021/11/17 15:07:42;;;;;;;61.38;23.33;;;17.00;99.90;;;;;;5090961;28;20064;-67
2021/11/17 15:10:12;;;;;;;75.68;24.17;;;17.10;99.90;;;;;;5108159;28;20072;-67
2021/11/17 15:12:40;;;;;;;78.40;23.20;;;17.20;99.90;;;;;;5091168;28;20120;-67
2021/11/17 15:15:11;;;;;;;75.63;24.70;;;17.30;99.90;;;;;;5092891;28;20072;-67
2021/11/17 15:17:38;;;;;;;79.18;25.10;;;17.30;99.90;;;;;;5111003;28;20541;-67
2021/11/17 15:20:06;;;;;;;81.93;25.40;;;17.40;99.90;;;;;;5089663;28;20076;-67
2021/11/17 15:22:35;;;;;;;63.17;23.50;;;17.50;99.90;;;;;;5091554;28;20518;-67
2021/11/17 15:25:01;;;;;;;73.63;24.67;;;17.50;99.90;;;;;;5108322;28;20111;-68
2021/11/17 15:27:30;;;;;;;;;;;17.70;99.90;;;;;;5090058;28;20072;-68
2021/11/17 15:29:57;;;;;;;66.63;23.80;;;17.80;99.90;;;;;;5091620;28;20054;-65
2021/11/17 15:32:24;;;;;;;79.72;24.80;;;17.90;99.90;;;;;;5090216;28;20087;-66
2021/11/17 15:34:51;;;;;;;91.40;25.08;;;18.00;99.90;;;;;;5091288;28;20534;-69
2021/11/17 15:37:18;;;;;;;83.88;25.08;;;18.10;99.90;;;;;;5089961;28;20526;-66
2021/11/17 15:39:44;;;;;;;77.82;26.08;;;18.20;99.90;;;;;;5091677;28;20068;-67
2021/11/17 15:42:10;;;;;;;;;;;18.40;99.90;;;;;;5109519;28;20079;-65
2021/11/17 15:44:37;;;;;;;86.07;26.05;;;18.50;99.90;;;;;;5090259;28;20379;-68
2021/11/17 15:47:07;;;;;;;85.95;26.95;;;18.70;99.90;;;;;;5092202;28;20072;-66